sensor_id;sensor_type;location;lat;lon;timestamp;P1;durP1;ratioP1;P2;durP2;ratioP2
1404;SDS011;697;51.114;6.542;2023-07-08T00:00:12;6.70;;;3.90;;
1404;SDS011;697;51.114;6.542;2023-07-08T00:02:41;10.43;;;3.63;;
1404;SDS011;697;51.114;6.542;2023-07-08T00:05:09;7.13;;;3.67;;
1404;SDS011;697;51.114;6.542;2023-07-08T00:07:36;3.80;;;3.40;;
1404;SDS011;697;51.114;6.542;2023-07-08T00:10:11;4.13;;;3.83;;
1404;SDS011;697;51.114;6.542;2023-07-08T00:12:39;6.13;;;3.70;;
1404;SDS011;697;51.114;6.542;2023-07-08T00:15:07;4.23;;;3.70;;
1404;SDS011;697;51.114;6.542;2023-07-08T00:17:34;4.30;;;3.50;;
1404;SDS011;697;51.114;6.542;2023-07-08T00:20:01;3.57;;;3.27;;
1404;SDS011;697;51.114;6.542;2023-07-08T00:22:34;5.10;;;3.40;;
1404;SDS011;697;51.114;6.542;2023-07-08T00:25:06;5.00;;;3.90;;
1404;SDS011;697;51.114;6.542;2023-07-08T00:27:34;6.60;;;4.03;;
1404;SDS011;697;51.114;6.542;2023-07-08T00:30:01;4.20;;;3.80;;
1404;SDS011;697;51.114;6.542;2023-07-08T00:32:34;4.00;;;3.60;;
1404;SDS011;697;51.114;6.542;2023-07-08T00:35:06;3.80;;;3.40;;
1404;SDS011;697;51.114;6.542;2023-07-08T00:37:33;4.23;;;3.83;;
1404;SDS011;697;51.114;6.542;2023-07-08T00:40:00;5.70;;;4.07;;
1404;SDS011;697;51.114;6.542;2023-07-08T00:42:28;5.87;;;3.90;;
1404;SDS011;697;51.114;6.542;2023-07-08T00:44:57;5.30;;;4.17;;
1404;SDS011;697;51.114;6.542;2023-07-08T00:47:24;4.67;;;4.00;;
1404;SDS011;697;51.114;6.542;2023-07-08T00:49:52;3.70;;;3.40;;
1404;SDS011;697;51.114;6.542;2023-07-08T00:52:24;4.40;;;4.00;;
1404;SDS011;697;51.114;6.542;2023-07-08T00:54:52;9.97;;;3.60;;
1404;SDS011;697;51.114;6.542;2023-07-08T00:57:20;3.27;;;2.70;;
1404;SDS011;697;51.114;6.542;2023-07-08T00:59:50;3.53;;;3.23;;
1404;SDS011;697;51.114;6.542;2023-07-08T01:02:23;4.60;;;3.30;;
1404;SDS011;697;51.114;6.542;2023-07-08T01:04:53;4.40;;;4.00;;
1404;SDS011;697;51.114;6.542;2023-07-08T01:07:24;5.07;;;3.13;;
1404;SDS011;697;51.114;6.542;2023-07-08T01:09:52;4.47;;;3.67;;
1404;SDS011;697;51.114;6.542;2023-07-08T01:12:30;6.10;;;3.87;;
1404;SDS011;697;51.114;6.542;2023-07-08T01:15:01;6.53;;;4.10;;
1404;SDS011;697;51.114;6.542;2023-07-08T01:17:30;4.27;;;3.20;;
1404;SDS011;697;51.114;6.542;2023-07-08T01:19:58;4.53;;;3.70;;
1404;SDS011;697;51.114;6.542;2023-07-08T01:22:27;6.10;;;3.57;;
1404;SDS011;697;51.114;6.542;2023-07-08T01:24:57;3.97;;;3.40;;
1404;SDS011;697;51.114;6.542;2023-07-08T01:27:28;3.87;;;3.40;;
1404;SDS011;697;51.114;6.542;2023-07-08T01:29:58;3.90;;;3.53;;
1404;SDS011;697;51.114;6.542;2023-07-08T01:32:25;6.80;;;4.30;;
1404;SDS011;697;51.114;6.542;2023-07-08T01:34:53;6.30;;;3.50;;
1404;SDS011;697;51.114;6.542;2023-07-08T01:37:31;8.33;;;3.97;;
1404;SDS011;697;51.114;6.542;2023-07-08T01:40:14;4.10;;;3.67;;
1404;SDS011;697;51.114;6.542;2023-07-08T01:42:42;5.43;;;3.53;;
1404;SDS011;697;51.114;6.542;2023-07-08T01:45:10;4.53;;;3.30;;
1404;SDS011;697;51.114;6.542;2023-07-08T01:47:37;3.67;;;3.30;;
1404;SDS011;697;51.114;6.542;2023-07-08T01:50:05;6.00;;;4.10;;
1404;SDS011;697;51.114;6.542;2023-07-08T01:52:35;4.87;;;3.40;;
1404;SDS011;697;51.114;6.542;2023-07-08T01:55:02;6.23;;;3.70;;
1404;SDS011;697;51.114;6.542;2023-07-08T01:57:29;5.53;;;4.80;;
1404;SDS011;697;51.114;6.542;2023-07-08T01:59:56;4.83;;;3.87;;
1404;SDS011;697;51.114;6.542;2023-07-08T02:02:23;3.33;;;3.03;;
1404;SDS011;697;51.114;6.542;2023-07-08T02:04:50;3.60;;;3.20;;
1404;SDS011;697;51.114;6.542;2023-07-08T02:07:17;5.73;;;3.20;;
1404;SDS011;697;51.114;6.542;2023-07-08T02:09:45;3.40;;;3.10;;
1404;SDS011;697;51.114;6.542;2023-07-08T02:12:11;6.23;;;3.53;;
1404;SDS011;697;51.114;6.542;2023-07-08T02:14:38;3.80;;;3.50;;
1404;SDS011;697;51.114;6.542;2023-07-08T02:17:05;4.73;;;3.53;;
1404;SDS011;697;51.114;6.542;2023-07-08T02:19:31;5.83;;;3.70;;
1404;SDS011;697;51.114;6.542;2023-07-08T02:21:58;4.10;;;3.70;;
1404;SDS011;697;51.114;6.542;2023-07-08T02:24:25;4.40;;;3.30;;
1404;SDS011;697;51.114;6.542;2023-07-08T02:26:53;4.40;;;3.50;;
1404;SDS011;697;51.114;6.542;2023-07-08T02:29:20;4.07;;;3.40;;
1404;SDS011;697;51.114;6.542;2023-07-08T02:31:46;4.50;;;3.93;;
1404;SDS011;697;51.114;6.542;2023-07-08T02:34:13;4.73;;;4.23;;
1404;SDS011;697;51.114;6.542;2023-07-08T02:36:40;4.33;;;4.00;;
1404;SDS011;697;51.114;6.542;2023-07-08T02:39:06;5.07;;;3.90;;
1404;SDS011;697;51.114;6.542;2023-07-08T02:41:33;4.10;;;3.70;;
1404;SDS011;697;51.114;6.542;2023-07-08T02:44:01;6.00;;;3.40;;
1404;SDS011;697;51.114;6.542;2023-07-08T02:46:28;3.87;;;3.53;;
1404;SDS011;697;51.114;6.542;2023-07-08T02:48:55;5.97;;;3.97;;
1404;SDS011;697;51.114;6.542;2023-07-08T02:51:21;7.63;;;3.63;;
1404;SDS011;697;51.114;6.542;2023-07-08T02:53:49;4.80;;;3.60;;
1404;SDS011;697;51.114;6.542;2023-07-08T02:56:16;3.47;;;3.13;;
1404;SDS011;697;51.114;6.542;2023-07-08T02:58:42;3.93;;;3.53;;
1404;SDS011;697;51.114;6.542;2023-07-08T03:01:10;3.80;;;3.50;;
1404;SDS011;697;51.114;6.542;2023-07-08T03:03:42;4.93;;;3.40;;
1404;SDS011;697;51.114;6.542;2023-07-08T03:06:09;3.87;;;3.57;;
1404;SDS011;697;51.114;6.542;2023-07-08T03:08:36;6.60;;;3.77;;
1404;SDS011;697;51.114;6.542;2023-07-08T03:11:04;7.17;;;4.10;;
1404;SDS011;697;51.114;6.542;2023-07-08T03:13:32;6.13;;;4.10;;
1404;SDS011;697;51.114;6.542;2023-07-08T03:16:00;4.50;;;3.87;;
1404;SDS011;697;51.114;6.542;2023-07-08T03:18:29;4.50;;;3.80;;
1404;SDS011;697;51.114;6.542;2023-07-08T03:20:57;5.27;;;4.20;;
1404;SDS011;697;51.114;6.542;2023-07-08T03:23:24;4.60;;;3.90;;
1404;SDS011;697;51.114;6.542;2023-07-08T03:25:51;6.77;;;4.33;;
1404;SDS011;697;51.114;6.542;2023-07-08T03:28:18;4.43;;;4.10;;
1404;SDS011;697;51.114;6.542;2023-07-08T03:30:45;4.90;;;4.03;;
1404;SDS011;697;51.114;6.542;2023-07-08T03:33:17;6.00;;;3.53;;
1404;SDS011;697;51.114;6.542;2023-07-08T03:35:46;4.83;;;3.93;;
1404;SDS011;697;51.114;6.542;2023-07-08T03:38:13;5.03;;;3.70;;
1404;SDS011;697;51.114;6.542;2023-07-08T03:40:39;4.40;;;4.00;;
1404;SDS011;697;51.114;6.542;2023-07-08T03:43:06;4.40;;;4.10;;
1404;SDS011;697;51.114;6.542;2023-07-08T03:45:33;5.03;;;4.53;;
1404;SDS011;697;51.114;6.542;2023-07-08T03:47:59;4.97;;;4.50;;
1404;SDS011;697;51.114;6.542;2023-07-08T03:50:26;6.13;;;4.67;;
1404;SDS011;697;51.114;6.542;2023-07-08T03:52:54;7.53;;;5.90;;
1404;SDS011;697;51.114;6.542;2023-07-08T03:55:22;5.20;;;4.60;;
1404;SDS011;697;51.114;6.542;2023-07-08T03:57:49;6.03;;;5.30;;
1404;SDS011;697;51.114;6.542;2023-07-08T04:00:16;8.23;;;5.07;;
1404;SDS011;697;51.114;6.542;2023-07-08T04:02:43;6.07;;;5.40;;
1404;SDS011;697;51.114;6.542;2023-07-08T04:05:12;6.87;;;5.87;;
1404;SDS011;697;51.114;6.542;2023-07-08T04:07:39;7.20;;;5.70;;
1404;SDS011;697;51.114;6.542;2023-07-08T04:10:08;6.37;;;4.90;;
1404;SDS011;697;51.114;6.542;2023-07-08T04:12:35;7.20;;;5.10;;
1404;SDS011;697;51.114;6.542;2023-07-08T04:15:02;6.07;;;4.90;;
1404;SDS011;697;51.114;6.542;2023-07-08T04:17:29;7.20;;;6.00;;
1404;SDS011;697;51.114;6.542;2023-07-08T04:19:56;6.20;;;5.60;;
1404;SDS011;697;51.114;6.542;2023-07-08T04:22:23;8.63;;;5.67;;
1404;SDS011;697;51.114;6.542;2023-07-08T04:24:50;8.20;;;5.20;;
1404;SDS011;697;51.114;6.542;2023-07-08T04:27:18;6.73;;;5.57;;
1404;SDS011;697;51.114;6.542;2023-07-08T04:29:44;7.13;;;5.77;;
1404;SDS011;697;51.114;6.542;2023-07-08T04:32:11;5.40;;;4.90;;
1404;SDS011;697;51.114;6.542;2023-07-08T04:34:38;6.20;;;5.50;;
1404;SDS011;697;51.114;6.542;2023-07-08T04:37:04;6.93;;;6.33;;
1404;SDS011;697;51.114;6.542;2023-07-08T04:39:31;7.77;;;5.27;;
1404;SDS011;697;51.114;6.542;2023-07-08T04:41:58;6.20;;;5.60;;
1404;SDS011;697;51.114;6.542;2023-07-08T04:44:26;5.93;;;5.33;;
1404;SDS011;697;51.114;6.542;2023-07-08T04:46:54;6.60;;;5.30;;
1404;SDS011;697;51.114;6.542;2023-07-08T04:49:22;9.17;;;5.40;;
1404;SDS011;697;51.114;6.542;2023-07-08T04:51:56;6.37;;;5.77;;
1404;SDS011;697;51.114;6.542;2023-07-08T04:54:24;6.50;;;5.57;;
1404;SDS011;697;51.114;6.542;2023-07-08T04:56:51;7.43;;;5.60;;
1404;SDS011;697;51.114;6.542;2023-07-08T04:59:20;6.83;;;5.00;;
1404;SDS011;697;51.114;6.542;2023-07-08T05:01:49;5.70;;;5.20;;
1404;SDS011;697;51.114;6.542;2023-07-08T05:04:17;5.70;;;5.10;;
1404;SDS011;697;51.114;6.542;2023-07-08T05:06:46;6.20;;;5.60;;
1404;SDS011;697;51.114;6.542;2023-07-08T05:09:13;7.00;;;6.30;;
1404;SDS011;697;51.114;6.542;2023-07-08T05:11:39;7.93;;;6.70;;
1404;SDS011;697;51.114;6.542;2023-07-08T05:14:06;13.30;;;6.40;;
1404;SDS011;697;51.114;6.542;2023-07-08T05:16:34;6.33;;;5.70;;
1404;SDS011;697;51.114;6.542;2023-07-08T05:19:02;9.43;;;6.00;;
1404;SDS011;697;51.114;6.542;2023-07-08T05:21:30;5.73;;;5.20;;
1404;SDS011;697;51.114;6.542;2023-07-08T05:23:58;5.07;;;4.33;;
1404;SDS011;697;51.114;6.542;2023-07-08T05:26:25;4.87;;;4.47;;
1404;SDS011;697;51.114;6.542;2023-07-08T05:28:52;5.30;;;4.13;;
1404;SDS011;697;51.114;6.542;2023-07-08T05:31:18;5.73;;;4.50;;
1404;SDS011;697;51.114;6.542;2023-07-08T05:33:45;4.20;;;3.80;;
1404;SDS011;697;51.114;6.542;2023-07-08T05:36:13;6.30;;;4.70;;
1404;SDS011;697;51.114;6.542;2023-07-08T05:38:40;4.80;;;4.27;;
1404;SDS011;697;51.114;6.542;2023-07-08T05:41:06;6.57;;;4.43;;
1404;SDS011;697;51.114;6.542;2023-07-08T05:43:33;12.27;;;5.30;;
1404;SDS011;697;51.114;6.542;2023-07-08T05:46:00;9.30;;;4.93;;
1404;SDS011;697;51.114;6.542;2023-07-08T05:48:28;7.00;;;5.63;;
1404;SDS011;697;51.114;6.542;2023-07-08T05:50:55;7.20;;;5.23;;
1404;SDS011;697;51.114;6.542;2023-07-08T05:53:23;6.83;;;5.23;;
1404;SDS011;697;51.114;6.542;2023-07-08T05:55:50;6.00;;;5.40;;
1404;SDS011;697;51.114;6.542;2023-07-08T05:58:17;5.87;;;5.10;;
1404;SDS011;697;51.114;6.542;2023-07-08T06:00:44;7.60;;;4.60;;
1404;SDS011;697;51.114;6.542;2023-07-08T06:03:11;6.10;;;4.80;;
1404;SDS011;697;51.114;6.542;2023-07-08T06:05:38;6.70;;;5.33;;
1404;SDS011;697;51.114;6.542;2023-07-08T06:08:05;4.90;;;4.40;;
1404;SDS011;697;51.114;6.542;2023-07-08T06:10:34;8.93;;;6.13;;
1404;SDS011;697;51.114;6.542;2023-07-08T06:13:07;13.43;;;5.20;;
1404;SDS011;697;51.114;6.542;2023-07-08T06:15:33;13.87;;;5.50;;
1404;SDS011;697;51.114;6.542;2023-07-08T06:18:00;6.77;;;4.87;;
1404;SDS011;697;51.114;6.542;2023-07-08T06:20:28;9.13;;;4.97;;
1404;SDS011;697;51.114;6.542;2023-07-08T06:22:55;7.30;;;5.00;;
1404;SDS011;697;51.114;6.542;2023-07-08T06:25:22;5.27;;;4.77;;
1404;SDS011;697;51.114;6.542;2023-07-08T06:27:50;5.47;;;4.97;;
1404;SDS011;697;51.114;6.542;2023-07-08T06:30:16;5.90;;;4.93;;
1404;SDS011;697;51.114;6.542;2023-07-08T06:32:43;7.53;;;4.97;;
1404;SDS011;697;51.114;6.542;2023-07-08T06:35:10;5.80;;;5.20;;
1404;SDS011;697;51.114;6.542;2023-07-08T06:37:36;5.13;;;4.63;;
1404;SDS011;697;51.114;6.542;2023-07-08T06:40:03;5.90;;;5.33;;
1404;SDS011;697;51.114;6.542;2023-07-08T06:42:31;7.77;;;5.27;;
1404;SDS011;697;51.114;6.542;2023-07-08T06:44:59;6.60;;;5.60;;
1404;SDS011;697;51.114;6.542;2023-07-08T06:47:25;7.50;;;5.53;;
1404;SDS011;697;51.114;6.542;2023-07-08T06:49:52;6.10;;;4.97;;
1404;SDS011;697;51.114;6.542;2023-07-08T06:52:19;5.53;;;4.93;;
1404;SDS011;697;51.114;6.542;2023-07-08T06:54:46;6.00;;;5.40;;
1404;SDS011;697;51.114;6.542;2023-07-08T06:57:12;8.90;;;5.50;;
1404;SDS011;697;51.114;6.542;2023-07-08T06:59:39;7.63;;;4.70;;
1404;SDS011;697;51.114;6.542;2023-07-08T07:02:07;6.47;;;5.17;;
1404;SDS011;697;51.114;6.542;2023-07-08T07:04:34;6.77;;;5.90;;
1404;SDS011;697;51.114;6.542;2023-07-08T07:07:01;6.40;;;5.20;;
1404;SDS011;697;51.114;6.542;2023-07-08T07:09:28;6.17;;;5.57;;
1404;SDS011;697;51.114;6.542;2023-07-08T07:11:54;6.10;;;5.27;;
1404;SDS011;697;51.114;6.542;2023-07-08T07:14:21;7.43;;;5.60;;
1404;SDS011;697;51.114;6.542;2023-07-08T07:16:48;7.63;;;5.37;;
1404;SDS011;697;51.114;6.542;2023-07-08T07:19:16;6.30;;;5.70;;
1404;SDS011;697;51.114;6.542;2023-07-08T07:21:42;6.30;;;4.80;;
1404;SDS011;697;51.114;6.542;2023-07-08T07:24:09;9.50;;;6.23;;
1404;SDS011;697;51.114;6.542;2023-07-08T07:26:37;6.50;;;4.83;;
1404;SDS011;697;51.114;6.542;2023-07-08T07:29:04;6.80;;;5.30;;
1404;SDS011;697;51.114;6.542;2023-07-08T07:31:31;10.43;;;5.73;;
1404;SDS011;697;51.114;6.542;2023-07-08T07:33:58;5.70;;;4.97;;
1404;SDS011;697;51.114;6.542;2023-07-08T07:36:26;5.80;;;5.30;;
1404;SDS011;697;51.114;6.542;2023-07-08T07:38:53;6.33;;;5.73;;
1404;SDS011;697;51.114;6.542;2023-07-08T07:41:20;6.73;;;5.80;;
1404;SDS011;697;51.114;6.542;2023-07-08T07:43:48;8.70;;;6.10;;
1404;SDS011;697;51.114;6.542;2023-07-08T07:46:15;7.13;;;5.10;;
1404;SDS011;697;51.114;6.542;2023-07-08T07:48:42;6.40;;;5.80;;
1404;SDS011;697;51.114;6.542;2023-07-08T07:51:08;6.43;;;5.33;;
1404;SDS011;697;51.114;6.542;2023-07-08T07:53:37;6.97;;;5.90;;
1404;SDS011;697;51.114;6.542;2023-07-08T07:56:04;7.47;;;5.90;;
1404;SDS011;697;51.114;6.542;2023-07-08T07:58:32;8.03;;;5.80;;
1404;SDS011;697;51.114;6.542;2023-07-08T08:00:59;6.20;;;5.60;;
1404;SDS011;697;51.114;6.542;2023-07-08T08:03:26;7.30;;;5.67;;
1404;SDS011;697;51.114;6.542;2023-07-08T08:05:52;5.60;;;5.03;;
1404;SDS011;697;51.114;6.542;2023-07-08T08:08:19;9.00;;;7.13;;
1404;SDS011;697;51.114;6.542;2023-07-08T08:10:48;6.17;;;5.60;;
1404;SDS011;697;51.114;6.542;2023-07-08T08:13:15;7.00;;;6.00;;
1404;SDS011;697;51.114;6.542;2023-07-08T08:15:42;6.67;;;6.00;;
1404;SDS011;697;51.114;6.542;2023-07-08T08:18:08;7.33;;;6.40;;
1404;SDS011;697;51.114;6.542;2023-07-08T08:20:35;9.40;;;6.07;;
1404;SDS011;697;51.114;6.542;2023-07-08T08:23:02;6.27;;;5.47;;
1404;SDS011;697;51.114;6.542;2023-07-08T08:25:29;7.30;;;6.07;;
1404;SDS011;697;51.114;6.542;2023-07-08T08:27:56;6.23;;;5.30;;
1404;SDS011;697;51.114;6.542;2023-07-08T08:30:23;6.93;;;5.90;;
1404;SDS011;697;51.114;6.542;2023-07-08T08:32:50;6.80;;;6.20;;
1404;SDS011;697;51.114;6.542;2023-07-08T08:35:17;7.37;;;6.63;;
1404;SDS011;697;51.114;6.542;2023-07-08T08:37:43;7.63;;;5.90;;
1404;SDS011;697;51.114;6.542;2023-07-08T08:40:11;7.63;;;6.83;;
1404;SDS011;697;51.114;6.542;2023-07-08T08:42:41;6.30;;;5.70;;
1404;SDS011;697;51.114;6.542;2023-07-08T08:45:15;7.90;;;7.17;;
1404;SDS011;697;51.114;6.542;2023-07-08T08:47:46;9.50;;;7.00;;
1404;SDS011;697;51.114;6.542;2023-07-08T08:50:27;7.20;;;6.50;;
1404;SDS011;697;51.114;6.542;2023-07-08T08:52:57;7.93;;;7.13;;
1404;SDS011;697;51.114;6.542;2023-07-08T08:55:25;10.53;;;6.97;;
1404;SDS011;697;51.114;6.542;2023-07-08T08:57:55;7.30;;;6.43;;
1404;SDS011;697;51.114;6.542;2023-07-08T09:00:30;6.90;;;6.30;;
1404;SDS011;697;51.114;6.542;2023-07-08T09:03:04;9.47;;;7.20;;
1404;SDS011;697;51.114;6.542;2023-07-08T09:05:35;8.00;;;7.30;;
1404;SDS011;697;51.114;6.542;2023-07-08T09:08:04;8.10;;;6.50;;
1404;SDS011;697;51.114;6.542;2023-07-08T09:10:42;7.90;;;7.10;;
1404;SDS011;697;51.114;6.542;2023-07-08T09:13:14;7.53;;;6.83;;
1404;SDS011;697;51.114;6.542;2023-07-08T09:15:46;7.80;;;7.00;;
1404;SDS011;697;51.114;6.542;2023-07-08T09:18:16;8.13;;;7.00;;
1404;SDS011;697;51.114;6.542;2023-07-08T09:20:46;8.90;;;7.13;;
1404;SDS011;697;51.114;6.542;2023-07-08T09:23:15;7.27;;;6.67;;
1404;SDS011;697;51.114;6.542;2023-07-08T09:25:47;8.00;;;7.27;;
1404;SDS011;697;51.114;6.542;2023-07-08T09:28:19;8.23;;;7.53;;
1404;SDS011;697;51.114;6.542;2023-07-08T09:30:48;8.40;;;7.60;;
1404;SDS011;697;51.114;6.542;2023-07-08T09:33:19;7.70;;;7.00;;
1404;SDS011;697;51.114;6.542;2023-07-08T09:35:47;8.20;;;7.30;;
1404;SDS011;697;51.114;6.542;2023-07-08T09:38:15;8.07;;;7.20;;
1404;SDS011;697;51.114;6.542;2023-07-08T09:40:45;8.63;;;7.40;;
1404;SDS011;697;51.114;6.542;2023-07-08T09:43:16;7.60;;;6.60;;
1404;SDS011;697;51.114;6.542;2023-07-08T09:45:52;7.13;;;6.53;;
1404;SDS011;697;51.114;6.542;2023-07-08T09:48:24;7.30;;;6.47;;
1404;SDS011;697;51.114;6.542;2023-07-08T09:50:52;8.57;;;6.90;;
1404;SDS011;697;51.114;6.542;2023-07-08T09:53:20;7.20;;;6.60;;
1404;SDS011;697;51.114;6.542;2023-07-08T09:55:47;11.00;;;6.73;;
1404;SDS011;697;51.114;6.542;2023-07-08T09:58:18;7.10;;;6.50;;
1404;SDS011;697;51.114;6.542;2023-07-08T10:00:51;7.50;;;6.80;;
1404;SDS011;697;51.114;6.542;2023-07-08T10:03:20;10.45;;;7.63;;
1404;SDS011;697;51.114;6.542;2023-07-08T10:05:49;7.43;;;6.82;;
1404;SDS011;697;51.114;6.542;2023-07-08T10:08:19;6.57;;;6.00;;
1404;SDS011;697;51.114;6.542;2023-07-08T10:10:48;7.72;;;6.88;;
1404;SDS011;697;51.114;6.542;2023-07-08T10:13:19;7.82;;;6.75;;
1404;SDS011;697;51.114;6.542;2023-07-08T10:15:51;7.13;;;6.53;;
1404;SDS011;697;51.114;6.542;2023-07-08T10:18:23;6.82;;;6.18;;
1404;SDS011;697;51.114;6.542;2023-07-08T10:20:54;7.60;;;6.63;;
1404;SDS011;697;51.114;6.542;2023-07-08T10:23:33;7.60;;;6.90;;
1404;SDS011;697;51.114;6.542;2023-07-08T10:26:09;8.95;;;6.07;;
1404;SDS011;697;51.114;6.542;2023-07-08T10:28:42;6.47;;;5.95;;
1404;SDS011;697;51.114;6.542;2023-07-08T10:31:16;7.03;;;6.18;;
1404;SDS011;697;51.114;6.542;2023-07-08T10:33:59;6.97;;;6.38;;
1404;SDS011;697;51.114;6.542;2023-07-08T10:36:41;7.03;;;5.80;;
1404;SDS011;697;51.114;6.542;2023-07-08T10:39:22;13.25;;;5.70;;
1404;SDS011;697;51.114;6.542;2023-07-08T10:42:05;8.85;;;6.50;;
1404;SDS011;697;51.114;6.542;2023-07-08T10:44:43;7.10;;;6.40;;
1404;SDS011;697;51.114;6.542;2023-07-08T10:47:22;6.60;;;6.00;;
1404;SDS011;697;51.114;6.542;2023-07-08T10:50:07;9.07;;;6.13;;
1404;SDS011;697;51.114;6.542;2023-07-08T10:52:50;6.03;;;5.53;;
1404;SDS011;697;51.114;6.542;2023-07-08T10:55:27;7.82;;;6.00;;
1404;SDS011;697;51.114;6.542;2023-07-08T10:58:13;14.52;;;6.80;;
1404;SDS011;697;51.114;6.542;2023-07-08T11:01:04;8.05;;;5.40;;
1404;SDS011;697;51.114;6.542;2023-07-08T11:03:42;5.85;;;5.25;;
1404;SDS011;697;51.114;6.542;2023-07-08T11:06:40;7.65;;;6.07;;
1404;SDS011;697;51.114;6.542;2023-07-08T11:09:13;6.45;;;5.78;;
1404;SDS011;697;51.114;6.542;2023-07-08T11:11:45;7.03;;;4.82;;
1404;SDS011;697;51.114;6.542;2023-07-08T11:14:18;7.53;;;5.80;;
1404;SDS011;697;51.114;6.542;2023-07-08T11:16:50;9.73;;;6.10;;
1404;SDS011;697;51.114;6.542;2023-07-08T11:19:24;10.68;;;5.97;;
1404;SDS011;697;51.114;6.542;2023-07-08T11:21:57;8.07;;;5.82;;
1404;SDS011;697;51.114;6.542;2023-07-08T11:24:28;6.10;;;5.28;;
1404;SDS011;697;51.114;6.542;2023-07-08T11:27:01;5.63;;;5.13;;
1404;SDS011;697;51.114;6.542;2023-07-08T11:29:33;5.80;;;5.18;;
1404;SDS011;697;51.114;6.542;2023-07-08T11:32:03;5.10;;;4.60;;
1404;SDS011;697;51.114;6.542;2023-07-08T11:34:33;5.53;;;5.03;;
1404;SDS011;697;51.114;6.542;2023-07-08T11:37:01;6.47;;;4.75;;
1404;SDS011;697;51.114;6.542;2023-07-08T11:39:32;5.85;;;5.18;;
1404;SDS011;697;51.114;6.542;2023-07-08T11:42:03;7.38;;;5.13;;
1404;SDS011;697;51.114;6.542;2023-07-08T11:44:40;6.47;;;5.60;;
1404;SDS011;697;51.114;6.542;2023-07-08T11:47:12;5.75;;;4.80;;
1404;SDS011;697;51.114;6.542;2023-07-08T11:49:43;5.10;;;4.70;;
1404;SDS011;697;51.114;6.542;2023-07-08T11:52:13;5.00;;;4.28;;
1404;SDS011;697;51.114;6.542;2023-07-08T11:54:45;5.47;;;5.07;;
1404;SDS011;697;51.114;6.542;2023-07-08T11:57:16;5.88;;;4.90;;
1404;SDS011;697;51.114;6.542;2023-07-08T11:59:44;6.43;;;5.07;;
1404;SDS011;697;51.114;6.542;2023-07-08T12:02:13;4.43;;;4.10;;
1404;SDS011;697;51.114;6.542;2023-07-08T12:04:54;5.25;;;4.75;;
1404;SDS011;697;51.114;6.542;2023-07-08T12:07:30;7.25;;;5.57;;
1404;SDS011;697;51.114;6.542;2023-07-08T12:09:58;8.77;;;5.05;;
1404;SDS011;697;51.114;6.542;2023-07-08T12:12:30;5.00;;;4.60;;
1404;SDS011;697;51.114;6.542;2023-07-08T12:15:00;6.80;;;4.47;;
1404;SDS011;697;51.114;6.542;2023-07-08T12:17:35;5.30;;;4.80;;
1404;SDS011;697;51.114;6.542;2023-07-08T12:20:06;4.95;;;4.55;;
1404;SDS011;697;51.114;6.542;2023-07-08T12:22:43;5.40;;;4.85;;
1404;SDS011;697;51.114;6.542;2023-07-08T12:25:11;5.70;;;5.30;;
1404;SDS011;697;51.114;6.542;2023-07-08T12:27:41;5.18;;;4.78;;
1404;SDS011;697;51.114;6.542;2023-07-08T12:30:09;4.32;;;3.95;;
1404;SDS011;697;51.114;6.542;2023-07-08T12:32:36;5.22;;;4.28;;
1404;SDS011;697;51.114;6.542;2023-07-08T12:35:03;5.30;;;4.70;;
1404;SDS011;697;51.114;6.542;2023-07-08T12:37:42;5.03;;;4.53;;
1404;SDS011;697;51.114;6.542;2023-07-08T12:40:09;5.85;;;3.90;;
1404;SDS011;697;51.114;6.542;2023-07-08T12:42:37;5.85;;;4.43;;
1404;SDS011;697;51.114;6.542;2023-07-08T12:45:07;5.20;;;4.00;;
1404;SDS011;697;51.114;6.542;2023-07-08T12:47:39;4.50;;;4.10;;
1404;SDS011;697;51.114;6.542;2023-07-08T12:50:09;5.80;;;4.65;;
1404;SDS011;697;51.114;6.542;2023-07-08T12:52:36;4.45;;;4.15;;
1404;SDS011;697;51.114;6.542;2023-07-08T12:55:03;4.43;;;4.13;;
1404;SDS011;697;51.114;6.542;2023-07-08T12:57:31;4.75;;;4.35;;
1404;SDS011;697;51.114;6.542;2023-07-08T12:59:58;5.72;;;5.15;;
1404;SDS011;697;51.114;6.542;2023-07-08T13:02:25;4.90;;;4.50;;
1404;SDS011;697;51.114;6.542;2023-07-08T13:04:55;4.68;;;3.85;;
1404;SDS011;697;51.114;6.542;2023-07-08T13:07:31;5.82;;;4.28;;
1404;SDS011;697;51.114;6.542;2023-07-08T13:10:01;4.40;;;4.00;;
1404;SDS011;697;51.114;6.542;2023-07-08T13:12:29;4.93;;;4.45;;
1404;SDS011;697;51.114;6.542;2023-07-08T13:15:00;11.52;;;5.05;;
1404;SDS011;697;51.114;6.542;2023-07-08T13:17:27;8.93;;;4.70;;
1404;SDS011;697;51.114;6.542;2023-07-08T13:19:55;4.90;;;4.40;;
1404;SDS011;697;51.114;6.542;2023-07-08T13:22:22;5.35;;;4.40;;
1404;SDS011;697;51.114;6.542;2023-07-08T13:24:59;5.20;;;4.78;;
1404;SDS011;697;51.114;6.542;2023-07-08T13:27:27;5.45;;;4.43;;
1404;SDS011;697;51.114;6.542;2023-07-08T13:29:54;4.38;;;3.97;;
1404;SDS011;697;51.114;6.542;2023-07-08T13:32:29;4.47;;;4.13;;
1404;SDS011;697;51.114;6.542;2023-07-08T13:34:56;5.03;;;4.38;;
1404;SDS011;697;51.114;6.542;2023-07-08T13:37:23;6.68;;;4.75;;
1404;SDS011;697;51.114;6.542;2023-07-08T13:39:51;4.82;;;4.45;;
1404;SDS011;697;51.114;6.542;2023-07-08T13:42:21;5.10;;;4.63;;
1404;SDS011;697;51.114;6.542;2023-07-08T13:44:47;4.82;;;4.53;;
1404;SDS011;697;51.114;6.542;2023-07-08T13:47:19;5.07;;;4.68;;
1404;SDS011;697;51.114;6.542;2023-07-08T13:49:52;5.18;;;4.22;;
1404;SDS011;697;51.114;6.542;2023-07-08T13:52:24;5.13;;;4.47;;
1404;SDS011;697;51.114;6.542;2023-07-08T13:54:51;4.95;;;4.55;;
1404;SDS011;697;51.114;6.542;2023-07-08T13:57:21;4.65;;;4.07;;
1404;SDS011;697;51.114;6.542;2023-07-08T13:59:49;5.32;;;4.57;;
1404;SDS011;697;51.114;6.542;2023-07-08T14:02:18;6.25;;;4.53;;
1404;SDS011;697;51.114;6.542;2023-07-08T14:04:47;4.85;;;4.55;;
1404;SDS011;697;51.114;6.542;2023-07-08T14:07:15;6.57;;;4.75;;
1404;SDS011;697;51.114;6.542;2023-07-08T14:09:43;5.55;;;4.97;;
1404;SDS011;697;51.114;6.542;2023-07-08T14:12:10;6.13;;;5.25;;
1404;SDS011;697;51.114;6.542;2023-07-08T14:14:38;5.65;;;5.18;;
1404;SDS011;697;51.114;6.542;2023-07-08T14:17:07;5.18;;;4.68;;
1404;SDS011;697;51.114;6.542;2023-07-08T14:19:36;6.15;;;5.55;;
1404;SDS011;697;51.114;6.542;2023-07-08T14:22:07;6.38;;;5.88;;
1404;SDS011;697;51.114;6.542;2023-07-08T14:24:45;7.15;;;5.07;;
1404;SDS011;697;51.114;6.542;2023-07-08T14:27:11;5.30;;;4.80;;
1404;SDS011;697;51.114;6.542;2023-07-08T14:29:40;6.28;;;4.65;;
1404;SDS011;697;51.114;6.542;2023-07-08T14:32:09;5.55;;;4.53;;
1404;SDS011;697;51.114;6.542;2023-07-08T14:34:39;5.25;;;4.85;;
1404;SDS011;697;51.114;6.542;2023-07-08T14:37:08;5.10;;;4.60;;
1404;SDS011;697;51.114;6.542;2023-07-08T14:39:39;5.57;;;5.13;;
1404;SDS011;697;51.114;6.542;2023-07-08T14:42:07;4.70;;;4.28;;
1404;SDS011;697;51.114;6.542;2023-07-08T14:44:36;6.03;;;4.40;;
1404;SDS011;697;51.114;6.542;2023-07-08T14:47:07;5.45;;;4.97;;
1404;SDS011;697;51.114;6.542;2023-07-08T14:49:35;6.60;;;4.57;;
1404;SDS011;697;51.114;6.542;2023-07-08T14:52:02;9.85;;;4.40;;
1404;SDS011;697;51.114;6.542;2023-07-08T14:54:29;6.00;;;5.40;;
1404;SDS011;697;51.114;6.542;2023-07-08T14:56:56;7.38;;;4.72;;
1404;SDS011;697;51.114;6.542;2023-07-08T14:59:23;6.93;;;5.07;;
1404;SDS011;697;51.114;6.542;2023-07-08T15:01:52;7.53;;;5.22;;
1404;SDS011;697;51.114;6.542;2023-07-08T15:04:22;5.28;;;4.88;;
1404;SDS011;697;51.114;6.542;2023-07-08T15:06:49;6.93;;;5.55;;
1404;SDS011;697;51.114;6.542;2023-07-08T15:09:17;5.50;;;5.03;;
1404;SDS011;697;51.114;6.542;2023-07-08T15:11:44;5.85;;;4.95;;
1404;SDS011;697;51.114;6.542;2023-07-08T15:14:14;5.90;;;5.40;;
1404;SDS011;697;51.114;6.542;2023-07-08T15:16:45;6.35;;;5.80;;
1404;SDS011;697;51.114;6.542;2023-07-08T15:19:12;5.28;;;4.88;;
1404;SDS011;697;51.114;6.542;2023-07-08T15:21:40;5.70;;;5.18;;
1404;SDS011;697;51.114;6.542;2023-07-08T15:24:08;5.43;;;4.90;;
1404;SDS011;697;51.114;6.542;2023-07-08T15:26:36;4.90;;;4.50;;
1404;SDS011;697;51.114;6.542;2023-07-08T15:29:04;5.90;;;5.20;;
1404;SDS011;697;51.114;6.542;2023-07-08T15:31:31;5.95;;;5.35;;
1404;SDS011;697;51.114;6.542;2023-07-08T15:33:59;5.55;;;5.00;;
1404;SDS011;697;51.114;6.542;2023-07-08T15:36:26;6.05;;;5.45;;
1404;SDS011;697;51.114;6.542;2023-07-08T15:38:54;5.65;;;4.90;;
1404;SDS011;697;51.114;6.542;2023-07-08T15:41:21;5.68;;;5.05;;